Time;durP1;ratioP1;P1;durP2;ratioP2;P2;SDS_P1;SDS_P2;PMS_P1;PMS_P2;Temp;Humidity;BMP_temperature;BMP_pressure;BME280_temperature;BME280_humidity;BME280_pressure;Samples;Min_cycle;Max_cycle;Signal;HPM_P1;HPM_P2
2021/12/19 00:04:13;;;;;;;21.50;10.93;;;;;;;3.06;98.26;101204.31;6720919;26;34997;-65
2021/12/19 00:09:50;;;;;;;18.50;9.60;;;;;;;2.99;99.25;101197.81;6703873;26;34825;-64
2021/12/19 00:12:54;;;;;;;19.37;10.32;;;;;;;3.04;99.39;101190.50;6720576;26;34836;-65
2021/12/19 00:15:57;;;;;;;20.02;10.45;;;;;;;3.00;99.57;101191.62;6720595;26;34279;-65
2021/12/19 00:19:00;;;;;;;21.40;9.60;;;;;;;3.09;99.16;101195.44;6720445;26;34403;-66
2021/12/19 00:22:03;;;;;;;20.92;10.30;;;;;;;3.06;99.54;101199.94;6720445;26;34995;-65
2021/12/19 00:25:06;;;;;;;19.42;10.57;;;;;;;3.14;98.87;101181.09;6720565;26;34836;-65
2021/12/19 00:28:09;;;;;;;19.02;10.05;;;;;;;3.16;98.82;101187.06;6720889;26;35507;-65
2021/12/19 00:31:12;;;;;;;18.35;10.25;;;;;;;3.15;98.86;101190.63;6720420;26;34852;-65
2021/12/19 00:34:15;;;;;;;18.75;9.25;;;;;;;3.21;98.39;101166.63;6720397;26;34230;-65
2021/12/19 00:37:19;;;;;;;19.67;10.73;;;;;;;3.25;98.42;101169.88;6720543;26;34278;-65
2021/12/19 00:40:22;;;;;;;23.08;11.27;;;;;;;3.24;98.57;101158.56;6720656;26;34916;-65
2021/12/19 00:43:35;;;;;;;19.23;10.48;;;;;;;3.17;99.24;101162.53;6720137;26;34880;-65
2021/12/19 00:46:48;;;;;;;22.20;11.15;;;;;;;3.27;99.09;101157.50;6720461;26;34185;-65
2021/12/19 00:49:55;;;;;;;23.10;10.07;;;;;;;3.26;99.07;101153.19;6720438;26;34267;-65
2021/12/19 00:53:19;;;;;;;21.12;11.35;;;;;;;3.28;99.08;101156.56;6720468;26;34277;-65
2021/12/19 00:56:22;;;;;;;22.13;11.25;;;;;;;3.28;99.33;101167.91;6720799;26;35133;-65
2021/12/19 00:59:25;;;;;;;23.08;11.70;;;;;;;3.26;99.46;101180.25;6720446;26;34138;-65
2021/12/19 01:02:28;;;;;;;19.20;10.60;;;;;;;3.21;100.00;101171.88;6720383;26;34666;-65
2021/12/19 01:05:34;;;;;;;21.05;11.12;;;;;;;3.25;99.83;101182.97;6720362;26;34693;-65
2021/12/19 01:08:37;;;;;;;15.70;8.40;;;;;;;3.21;99.95;101165.78;6720361;26;34861;-64
2021/12/19 01:11:40;;;;;;;21.58;10.73;;;;;;;3.25;100.00;101159.37;6720702;26;35139;-64
2021/12/19 01:14:44;;;;;;;22.45;11.48;;;;;;;3.20;100.00;101154.44;6720176;26;35463;-64
2021/12/19 01:17:47;;;;;;;21.02;11.48;;;;;;;3.12;100.00;101148.03;6720227;26;34841;-64
2021/12/19 01:20:50;;;;;;;24.58;11.20;;;;;;;3.12;100.00;101151.50;6720382;26;34701;-65
2021/12/19 01:23:52;;;;;;;24.83;11.63;;;;;;;3.12;100.00;101137.56;6720224;26;34620;-65
2021/12/19 01:26:55;;;;;;;23.55;12.20;;;;;;;3.15;100.00;101147.84;6720360;26;34194;-65
2021/12/19 01:29:58;;;;;;;25.50;12.32;;;;;;;3.23;100.00;101135.91;6700618;26;34626;-65
2021/12/19 01:33:01;;;;;;;21.60;11.75;;;;;;;3.21;100.00;101140.41;6720212;26;34328;-64
2021/12/19 01:36:05;;;;;;;24.83;12.30;;;;;;;3.21;100.00;101132.53;6719971;26;34272;-65
2021/12/19 01:39:14;;;;;;;25.77;12.43;;;;;;;3.37;100.00;101120.09;6720179;26;34193;-65
2021/12/19 01:42:19;;;;;;;25.20;13.05;;;;;;;3.42;100.00;101127.63;6698315;26;34800;-65
2021/12/19 01:45:30;;;;;;;25.23;12.65;;;;;;;3.40;100.00;101124.25;6720132;26;34397;-65
2021/12/19 01:48:33;;;;;;;25.30;12.57;;;;;;;3.46;100.00;101110.75;6720124;26;33630;-64
2021/12/19 01:51:36;;;;;;;23.98;12.02;;;;;;;3.49;100.00;101103.50;6720221;26;34744;-66
2021/12/19 01:54:39;;;;;;;25.48;12.52;;;;;;;3.55;100.00;101098.78;6719979;26;34553;-64
2021/12/19 01:57:42;;;;;;;23.80;11.65;;;;;;;3.50;100.00;101081.56;6720096;26;35093;-65
2021/12/19 02:00:56;;;;;;;23.33;11.82;;;;;;;3.51;100.00;101074.53;6720236;26;34968;-65
2021/12/19 02:03:59;;;;;;;27.58;13.10;;;;;;;3.54;100.00;101078.72;6720041;26;34993;-65
2021/12/19 02:07:03;;;;;;;26.42;12.55;;;;;;;3.58;100.00;101077.59;6747617;26;34403;-65
2021/12/19 02:10:09;;;;;;;24.65;12.50;;;;;;;3.65;100.00;101068.34;6748587;26;34961;-65
2021/12/19 02:13:13;;;;;;;24.70;11.63;;;;;;;3.69;100.00;101060.16;6748629;26;34943;-65
2021/12/19 02:16:16;;;;;;;23.20;11.80;;;;;;;3.76;100.00;101066.66;6748621;26;34937;-65
2021/12/19 02:19:18;;;;;;;21.80;10.48;;;;;;;3.81;100.00;101050.59;6748503;26;34962;-65
2021/12/19 02:22:21;;;;;;;23.55;12.13;;;;;;;3.78;100.00;101043.75;6748836;26;35521;-65
2021/12/19 02:25:24;;;;;;;21.67;10.43;;;;;;;3.81;100.00;101053.22;6748511;26;34926;-65
2021/12/19 02:28:27;;;;;;;23.70;12.20;;;;;;;3.85;100.00;101049.41;6748465;26;34406;-65
2021/12/19 02:31:30;;;;;;;21.05;10.93;;;;;;;3.84;100.00;101031.97;6748549;26;33845;-66
2021/12/19 02:34:39;;;;;;;22.85;12.18;;;;;;;3.86;100.00;101027.47;6746937;26;34541;-65
2021/12/19 02:50:53;;;;;;;23.38;11.20;;;;;;;3.99;100.00;100978.38;6748339;26;34190;-66
2021/12/19 02:53:57;;;;;;;20.75;10.70;;;;;;;4.02;100.00;100993.09;6748377;26;34290;-65
2021/12/19 02:57:01;;;;;;;21.27;11.05;;;;;;;3.99;100.00;100975.75;6748243;26;34239;-65
2021/12/19 03:00:09;;;;;;;18.75;10.25;;;;;;;4.00;100.00;100994.97;6748244;26;34372;-67
2021/12/19 03:03:11;;;;;;;17.20;9.30;;;;;;;4.04;100.00;100978.91;6748162;26;34267;-66
2021/12/19 03:06:14;;;;;;;21.45;11.00;;;;;;;4.11;100.00;100977.50;6748922;26;34373;-65
2021/12/19 03:10:00;;;;;;;19.50;10.40;;;;;;;4.04;100.00;100975.44;6749365;26;34813;-65
2021/12/19 03:19:37;;;;;;;20.30;11.23;;;;;;;3.97;100.00;100945.34;6749421;26;34181;-65
2021/12/19 03:22:40;;;;;;;22.42;11.68;;;;;;;3.97;100.00;100953.22;6749767;26;34325;-65
2021/12/19 03:25:43;;;;;;;18.45;10.35;;;;;;;3.93;100.00;100948.16;6749507;26;34273;-65
2021/12/19 03:28:46;;;;;;;18.75;10.70;;;;;;;3.92;100.00;100941.25;6749458;26;34326;-64
2021/12/19 03:31:49;;;;;;;19.45;10.95;;;;;;;3.86;100.00;100938.25;6749288;26;34715;-65
2021/12/19 03:34:51;;;;;;;18.23;10.73;;;;;;;3.86;100.00;100925.97;6749500;26;34148;-66
2021/12/19 03:37:54;;;;;;;19.67;11.02;;;;;;;3.82;100.00;100929.75;6749222;26;34184;-65
2021/12/19 03:41:14;;;;;;;20.75;11.25;;;;;;;3.88;100.00;100928.44;6749017;26;35014;-65
2021/12/19 03:44:18;;;;;;;;;;;;;;;3.88;100.00;100918.78;6749488;26;34933;-64
2021/12/19 03:47:20;;;;;;;24.35;11.50;;;;;;;3.96;100.00;100927.91;6749355;26;34996;-64
2021/12/19 03:50:24;;;;;;;19.70;11.88;;;;;;;3.86;100.00;100925.97;6749338;26;34945;-64
2021/12/19 03:53:26;;;;;;;22.17;11.68;;;;;;;3.80;100.00;100929.03;6749344;26;34595;-64
2021/12/19 03:56:29;;;;;;;20.52;11.48;;;;;;;3.83;100.00;100930.56;6749148;26;34789;-65
2021/12/19 03:59:32;;;;;;;22.42;12.02;;;;;;;3.83;100.00;100928.78;6749072;26;34324;-64
2021/12/19 04:02:34;;;;;;;21.58;12.15;;;;;;;3.86;100.00;100914.63;6749095;26;35606;-64
2021/12/19 04:05:42;;;;;;;21.37;12.20;;;;;;;3.91;100.00;100918.59;6749153;26;35643;-65
2021/12/19 04:08:46;;;;;;;20.88;11.38;;;;;;;3.89;100.00;100930.12;6749154;26;34363;-66
2021/12/19 04:11:50;;;;;;;20.67;12.18;;;;;;;3.86;100.00;100912.84;6748938;26;34368;-65
2021/12/19 04:14:53;;;;;;;19.92;11.55;;;;;;;3.90;100.00;100903.78;6749281;26;34302;-66
2021/12/19 04:17:56;;;;;;;20.10;10.65;;;;;;;3.90;100.00;100919.53;6748966;26;34241;-67
2021/12/19 04:20:58;;;;;;;16.98;10.10;;;;;;;3.94;100.00;100926.22;6749051;26;35106;-66
2021/12/19 04:24:01;;;;;;;19.80;10.45;;;;;;;3.90;100.00;100919.53;6749009;26;34387;-65
2021/12/19 04:27:04;;;;;;;19.55;10.82;;;;;;;3.90;100.00;100930.03;6749170;26;34112;-65
2021/12/19 04:30:10;;;;;;;19.70;11.00;;;;;;;3.90;100.00;100926.56;6749120;26;34493;-65
2021/12/19 04:33:13;;;;;;;20.42;10.65;;;;;;;3.91;100.00;100925.63;6749219;26;34826;-65
2021/12/19 04:36:23;;;;;;;17.83;10.40;;;;;;;3.91;100.00;100925.63;6748807;26;34153;-64
2021/12/19 04:43:33;;;;;;;19.42;11.18;;;;;;;3.96;100.00;100906.91;6729147;26;34543;-65
2021/12/19 05:00:19;;;;;;;19.62;11.10;;;;;;;3.89;100.00;100873.22;6749410;26;34221;-66
2021/12/19 05:02:59;;;;;;;19.90;10.95;;;;;;;3.86;100.00;100857.72;6738854;26;34860;-66
2021/12/19 05:06:11;;;;;;;19.27;10.57;;;;;;;3.67;100.00;100846.91;6748829;26;34243;-67
2021/12/19 05:15:58;;;;;;;18.75;9.18;;;;;;;3.72;100.00;100836.06;6748766;26;34832;-67
2021/12/19 05:19:26;;;;;;;18.37;10.10;;;;;;;3.70;100.00;100832.72;6749082;26;34434;-67
2021/12/19 05:22:27;;;;;;;18.00;10.90;;;;;;;3.72;100.00;100826.41;6748819;26;34364;-67
2021/12/19 05:25:30;;;;;;;19.45;10.40;;;;;;;3.72;100.00;100829.03;6748884;26;34566;-65
2021/12/19 05:28:33;;;;;;;19.08;10.00;;;;;;;3.72;100.00;100836.91;6748506;26;34238;-66
2021/12/19 05:31:35;;;;;;;18.80;10.85;;;;;;;3.72;100.00;100843.94;6748755;26;34690;-65
2021/12/19 05:34:38;;;;;;;19.00;10.23;;;;;;;3.73;100.00;100812.31;6749189;26;34352;-66
2021/12/19 05:47:49;;;;;;;19.02;10.52;;;;;;;3.60;100.00;100803.69;6731924;26;34992;-65
2021/12/19 05:50:51;;;;;;;18.20;10.60;;;;;;;3.56;100.00;100783.88;6748647;26;34327;-65
2021/12/19 05:53:54;;;;;;;15.55;9.70;;;;;;;3.67;100.00;100802.31;6728829;26;34398;-65
2021/12/19 05:56:57;;;;;;;17.98;9.65;;;;;;;3.65;100.00;100788.44;6748630;26;34299;-65
2021/12/19 06:00:01;;;;;;;20.17;10.68;;;;;;;3.69;100.00;100787.25;6748771;26;34366;-66
2021/12/19 06:03:10;;;;;;;18.33;9.82;;;;;;;3.75;100.00;100784.19;6749003;26;34877;-65
2021/12/19 06:06:13;;;;;;;20.70;10.75;;;;;;;3.71;100.00;100777.50;6748682;26;34247;-65
2021/12/19 06:09:16;;;;;;;18.70;10.00;;;;;;;3.70;100.00;100788.09;6748486;26;34241;-66
2021/12/19 06:12:18;;;;;;;16.67;10.20;;;;;;;3.66;100.00;100784.03;6748581;26;34995;-65
2021/12/19 06:15:21;;;;;;;17.33;10.38;;;;;;;3.69;100.00;100774.16;6749010;26;34700;-66
2021/12/19 06:18:24;;;;;;;16.77;10.52;;;;;;;3.71;100.00;100771.41;6748614;26;34276;-66
2021/12/19 06:21:27;;;;;;;15.07;9.45;;;;;;;3.78;100.00;100772.63;6748586;26;34931;-67
2021/12/19 06:24:31;;;;;;;17.35;10.05;;;;;;;3.73;100.00;100783.44;6748622;26;34235;-66
2021/12/19 06:27:33;;;;;;;16.80;8.75;;;;;;;3.71;100.00;100768.78;6748389;26;34998;-65
2021/12/19 06:30:36;;;;;;;14.35;9.25;;;;;;;3.75;100.00;100778.94;6748441;26;34974;-65
2021/12/19 06:33:39;;;;;;;17.05;9.98;;;;;;;3.71;100.00;100771.41;6748510;26;34118;-65
2021/12/19 06:36:42;;;;;;;17.33;9.57;;;;;;;3.75;100.00;100783.34;6748299;26;34559;-65
2021/12/19 06:39:44;;;;;;;17.98;10.98;;;;;;;3.76;100.00;100777.16;6747497;26;34206;-64
2021/12/19 06:42:47;;;;;;;16.15;8.90;;;;;;;3.72;100.00;100776.56;6748213;26;34259;-65
2021/12/19 06:45:50;;;;;;;15.60;9.25;;;;;;;3.73;100.00;100756.38;6748248;26;35596;-65
2021/12/19 06:48:53;;;;;;;16.92;10.02;;;;;;;3.84;100.00;100752.00;6747875;26;34834;-65
2021/12/19 06:51:56;;;;;;;16.33;9.40;;;;;;;3.73;100.00;100759.00;6748177;26;34420;-65
2021/12/19 06:54:59;;;;;;;18.73;8.95;;;;;;;3.79;100.00;100748.87;6748322;26;34924;-65
2021/12/19 06:58:01;;;;;;;16.50;8.52;;;;;;;3.85;100.00;100748.44;6728869;26;34619;-65
2021/12/19 07:01:04;;;;;;;15.25;8.45;;;;;;;3.86;100.00;100744.03;6748693;26;34172;-64
2021/12/19 07:04:08;;;;;;;14.93;9.27;;;;;;;3.91;100.00;100736.66;6748655;26;34295;-65
2021/12/19 07:07:12;;;;;;;14.70;9.05;;;;;;;3.86;100.00;100728.28;6748210;26;34178;-65
2021/12/19 07:10:14;;;;;;;14.57;8.65;;;;;;;3.91;100.00;100732.22;6748505;26;35534;-65
2021/12/19 07:13:20;;;;;;;14.73;8.82;;;;;;;3.92;100.00;100733.88;6748227;26;34973;-65
2021/12/19 07:16:23;;;;;;;14.87;8.23;;;;;;;3.91;100.00;100721.72;6747794;26;34208;-66
2021/12/19 07:19:26;;;;;;;14.32;9.02;;;;;;;3.99;100.00;100722.91;6748420;26;34272;-65
2021/12/19 07:22:29;;;;;;;14.45;8.70;;;;;;;3.98;100.00;100737.00;6748098;26;34240;-65
2021/12/19 07:25:32;;;;;;;12.30;8.18;;;;;;;4.05;100.00;100731.16;6747986;26;34977;-65
2021/12/19 07:28:34;;;;;;;13.50;8.30;;;;;;;4.11;100.00;100727.25;6748438;26;34178;-65
2021/12/19 07:31:38;;;;;;;15.15;8.60;;;;;;;4.09;100.00;100731.75;6748394;26;34638;-65
2021/12/19 07:34:42;;;;;;;11.38;7.18;;;;;;;4.13;100.00;100726.16;6743940;26;34985;-66
2021/12/19 07:37:46;;;;;;;14.55;7.90;;;;;;;4.23;100.00;100736.78;6734282;26;34889;-65
2021/12/19 07:40:50;;;;;;;12.70;7.00;;;;;;;4.28;100.00;100742.53;6747790;26;34907;-65
2021/12/19 07:43:53;;;;;;;12.32;6.82;;;;;;;4.24;99.99;100723.53;6747780;26;34892;-65
2021/12/19 07:46:56;;;;;;;13.52;7.45;;;;;;;4.24;100.00;100704.31;6747770;26;34313;-67
2021/12/19 07:49:59;;;;;;;11.10;7.22;;;;;;;4.28;99.65;100721.50;6747638;26;34738;-67
2021/12/19 07:53:03;;;;;;;13.10;7.70;;;;;;;4.27;99.72;100709.31;6749001;26;34971;-65
2021/12/19 07:56:06;;;;;;;9.40;5.97;;;;;;;4.24;100.00;100702.53;6749201;26;34967;-67
2021/12/19 07:59:08;;;;;;;12.20;7.00;;;;;;;4.25;99.88;100696.34;6749121;26;34391;-66
2021/12/19 08:02:11;;;;;;;11.63;7.18;;;;;;;4.33;99.98;100704.44;6748917;26;35082;-65
2021/12/19 08:05:16;;;;;;;14.15;6.95;;;;;;;4.37;99.34;100687.47;6748839;26;35228;-65
2021/12/19 08:08:25;;;;;;;12.55;7.03;;;;;;;4.35;99.53;100688.56;6748997;26;34339;-65
2021/12/19 08:11:40;;;;;;;12.30;7.90;;;;;;;4.37;99.63;100684.84;6749214;26;34247;-65
2021/12/19 08:14:42;;;;;;;12.15;7.07;;;;;;;4.38;99.68;100683.91;6749161;26;34736;-65
2021/12/19 08:17:45;;;;;;;12.98;7.20;;;;;;;4.50;98.97;100676.03;6748860;26;35037;-65
2021/12/19 08:20:48;;;;;;;11.30;6.60;;;;;;;4.58;98.40;100670.97;6749296;26;34859;-65
2021/12/19 08:23:51;;;;;;;11.57;6.78;;;;;;;4.69;97.52;100666.56;6749186;26;35115;-67
2021/12/19 08:26:53;;;;;;;13.55;6.30;;;;;;;4.68;97.53;100664.88;6749144;26;34616;-67
2021/12/19 08:29:56;;;;;;;11.18;7.03;;;;;;;4.61;97.35;100658.44;6749416;26;34875;-67
2021/12/19 08:32:59;;;;;;;10.20;6.70;;;;;;;4.59;97.94;100649.00;6749232;26;34151;-69
2021/12/19 08:36:02;;;;;;;12.13;6.62;;;;;;;4.66;97.27;100637.88;6748893;26;34884;-66
2021/12/19 08:39:05;;;;;;;13.93;7.35;;;;;;;4.52;98.42;100642.56;6749323;26;34878;-69
2021/12/19 08:42:14;;;;;;;11.98;7.00;;;;;;;4.54;98.35;100641.50;6748819;26;34985;-68
2021/12/19 08:45:17;;;;;;;11.35;6.75;;;;;;;4.69;97.82;100629.75;6748465;26;34154;-67
2021/12/19 08:48:20;;;;;;;10.88;6.62;;;;;;;4.49;98.93;100621.81;6748627;26;34714;-67
2021/12/19 08:51:25;;;;;;;9.95;6.00;;;;;;;4.54;98.42;100623.09;6748683;26;34162;-66
2021/12/19 08:54:28;;;;;;;13.80;6.95;;;;;;;4.48;98.96;100628.00;6748836;26;34326;-66
2021/12/19 08:57:30;;;;;;;12.48;6.03;;;;;;;4.54;98.59;100624.91;6748678;26;34363;-65
2021/12/19 09:00:33;;;;;;;13.50;6.43;;;;;;;4.47;99.01;100621.91;6748996;26;34429;-67
2021/12/19 09:03:36;;;;;;;14.43;7.10;;;;;;;4.54;98.84;100633.63;6748250;26;34227;-66
2021/12/19 09:06:39;;;;;;;14.02;7.85;;;;;;;4.49;99.16;100630.53;6749178;26;34886;-66
2021/12/19 09:09:43;;;;;;;13.80;6.97;;;;;;;4.60;98.51;100637.56;6748633;26;34339;-65
2021/12/19 09:12:46;;;;;;;14.48;7.50;;;;;;;4.71;98.06;100624.34;6748843;26;34299;-67
2021/12/19 09:15:49;;;;;;;11.98;6.18;;;;;;;4.70;97.96;100638.44;6748785;26;35520;-67
2021/12/19 09:18:53;;;;;;;16.25;7.90;;;;;;;4.68;97.77;100624.63;6748796;26;34353;-67
2021/12/19 09:21:55;;;;;;;14.85;7.43;;;;;;;4.72;97.42;100616.37;6748789;26;34220;-66
2021/12/19 09:24:58;;;;;;;11.73;6.95;;;;;;;4.79;96.84;100614.88;6748804;26;34853;-66
2021/12/19 09:28:00;;;;;;;14.70;7.53;;;;;;;4.75;97.39;100605.59;6748460;26;34390;-66
2021/12/19 09:31:03;;;;;;;14.15;7.53;;;;;;;4.83;97.11;100594.47;6748477;26;34394;-66
2021/12/19 09:34:07;;;;;;;12.23;6.90;;;;;;;5.04;95.37;100611.09;6748478;26;34172;-65
2021/12/19 09:37:12;;;;;;;14.43;7.20;;;;;;;5.00;95.53;100600.94;6748300;26;34286;-66
2021/12/19 09:40:22;;;;;;;12.60;7.05;;;;;;;5.23;94.40;100584.09;6748445;26;34766;-65
2021/12/19 09:43:44;;;;;;;13.00;7.30;;;;;;;5.29;93.60;100588.84;6748622;26;34253;-65
2021/12/19 09:46:48;;;;;;;9.82;5.97;;;;;;;5.24;94.16;100580.50;6748388;26;34195;-66
2021/12/19 09:49:51;;;;;;;8.75;5.10;;;;;;;5.52;92.32;100585.09;6748482;26;34405;-66
2021/12/19 09:52:54;;;;;;;9.70;5.87;;;;;;;5.34;92.87;100567.41;6748607;26;34251;-65
2021/12/19 09:55:57;;;;;;;11.20;6.40;;;;;;;5.53;91.73;100552.56;6728492;26;34969;-66
2021/12/19 09:59:02;;;;;;;10.38;6.35;;;;;;;5.70;91.03;100548.50;6748588;26;35018;-66
2021/12/19 10:02:05;;;;;;;11.93;6.35;;;;;;;5.96;89.33;100547.06;6748737;26;34871;-66
2021/12/19 10:05:23;;;;;;;9.82;6.10;;;;;;;5.94;89.25;100548.19;6748288;26;34195;-66
2021/12/19 10:08:26;;;;;;;12.23;6.18;;;;;;;5.76;89.86;100541.87;6747407;26;34230;-66
2021/12/19 10:11:46;;;;;;;10.35;6.30;;;;;;;5.50;90.69;100531.78;6747730;26;34944;-66
2021/12/19 10:14:48;;;;;;;11.45;6.60;;;;;;;5.59;91.40;100535.41;6748048;26;35573;-66
2021/12/19 10:18:08;;;;;;;9.50;5.30;;;;;;;5.61;90.45;100528.22;6728953;26;34286;-65
2021/12/19 10:21:10;;;;;;;11.82;5.87;;;;;;;5.70;89.85;100516.91;6747759;26;34593;-65
2021/12/19 10:24:29;;;;;;;9.93;6.10;;;;;;;5.55;90.33;100519.06;6748046;26;34985;-66
2021/12/19 10:27:35;;;;;;;9.18;5.90;;;;;;;5.44;91.08;100513.88;6748041;26;34213;-66
2021/12/19 10:30:46;;;;;;;10.73;6.18;;;;;;;5.57;90.46;100511.00;6748050;26;35526;-65
2021/12/19 10:33:48;;;;;;;9.13;5.22;;;;;;;5.60;90.06;100505.50;6748154;26;35156;-65
2021/12/19 10:36:51;;;;;;;11.02;5.55;;;;;;;5.48;90.67;100503.91;6748247;26;34221;-65
2021/12/19 10:40:03;;;;;;;7.75;5.07;;;;;;;5.83;89.37;100501.69;6748208;26;34278;-65
2021/12/19 10:43:07;;;;;;;10.77;5.37;;;;;;;5.70;89.22;100480.06;6748087;26;34395;-66
2021/12/19 10:46:10;;;;;;;9.65;5.18;;;;;;;5.40;90.49;100475.66;6728115;26;34188;-66
2021/12/19 10:49:30;;;;;;;9.38;5.90;;;;;;;5.38;90.91;100474.09;6748282;26;34221;-66
2021/12/19 10:52:35;;;;;;;9.48;5.30;;;;;;;5.40;90.59;100464.28;6748178;26;34874;-65
2021/12/19 10:55:45;;;;;;;12.15;5.95;;;;;;;5.25;91.59;100466.44;6747922;26;34978;-65
2021/12/19 10:58:56;;;;;;;13.73;5.33;;;;;;;5.42;90.95;100459.75;6747712;26;35438;-64
2021/12/19 11:01:59;;;;;;;10.45;5.32;;;;;;;5.45;89.58;100451.56;6748162;26;35021;-66
2021/12/19 11:05:03;;;;;;;8.13;4.65;;;;;;;5.55;89.15;100452.44;6748107;26;34160;-66
2021/12/19 11:08:08;;;;;;;9.15;5.25;;;;;;;5.42;89.23;100471.06;6747861;26;34296;-66
2021/12/19 11:11:28;;;;;;;11.15;5.95;;;;;;;5.36;89.52;100468.16;6748071;26;34469;-66
2021/12/19 11:14:34;;;;;;;9.10;5.37;;;;;;;5.48;88.88;100491.59;6748144;26;34887;-67
2021/12/19 11:17:36;;;;;;;11.48;5.15;;;;;;;5.28;89.11;100471.44;6747980;26;34340;-65
2021/12/19 11:20:39;;;;;;;8.85;4.43;;;;;;;5.23;90.08;100471.00;6748000;26;34296;-65
2021/12/19 11:23:42;;;;;;;9.70;5.15;;;;;;;5.30;90.08;100469.50;6747940;26;34541;-68
2021/12/19 11:26:47;;;;;;;10.43;5.70;;;;;;;5.25;89.27;100469.06;6748814;26;34699;-65
2021/12/19 11:29:52;;;;;;;10.00;5.82;;;;;;;5.30;89.64;100460.78;6749283;26;34191;-65
2021/12/19 11:33:23;;;;;;;8.80;4.87;;;;;;;5.33;89.43;100469.25;6749173;26;34634;-67
2021/12/19 11:36:32;;;;;;;11.27;5.18;;;;;;;5.20;89.82;100460.75;6749160;26;34277;-65
2021/12/19 11:39:39;;;;;;;9.30;5.17;;;;;;;5.13;90.26;100451.72;6749378;26;34315;-66
2021/12/19 11:42:42;;;;;;;10.10;4.47;;;;;;;5.03;90.75;100461.38;6729328;26;34201;-65
2021/12/19 11:45:56;;;;;;;8.23;5.03;;;;;;;5.00;91.11;100445.81;6729465;26;34175;-65
2021/12/19 11:49:23;;;;;;;10.05;5.03;;;;;;;4.94;91.45;100462.16;6749052;26;34869;-66
2021/12/19 11:52:30;;;;;;;11.48;5.25;;;;;;;4.93;90.91;100450.78;6749210;26;34472;-65
2021/12/19 11:55:38;;;;;;;10.27;5.40;;;;;;;4.98;90.97;100456.50;6749255;26;34609;-64
2021/12/19 11:58:49;;;;;;;9.65;5.20;;;;;;;4.87;91.06;100442.59;6749114;26;34856;-66
2021/12/19 12:01:52;;;;;;;8.77;5.00;;;;;;;4.99;90.61;100444.16;6749608;26;34171;-65
2021/12/19 12:05:13;;;;;;;12.02;5.00;;;;;;;4.92;90.72;100441.22;6749520;26;35247;-65
2021/12/19 12:08:19;;;;;;;9.50;5.05;;;;;;;4.95;90.63;100451.47;6749535;26;34728;-67
2021/12/19 12:11:22;;;;;;;9.18;4.70;;;;;;;4.93;90.90;100452.59;6748836;26;34282;-65
2021/12/19 12:14:30;;;;;;;7.95;4.47;;;;;;;4.82;91.54;100451.69;6729143;26;34908;-66
2021/12/19 12:17:40;;;;;;;11.20;5.20;;;;;;;4.89;91.53;100438.03;6748941;26;34183;-65
2021/12/19 12:20:43;;;;;;;11.25;5.32;;;;;;;4.74;92.10;100448.06;6748634;26;34554;-65
2021/12/19 12:23:53;;;;;;;7.43;4.53;;;;;;;4.75;91.82;100447.91;6748798;26;34884;-66
2021/12/19 12:27:00;;;;;;;7.90;4.07;;;;;;;4.77;91.46;100435.47;6748922;26;34707;-65
2021/12/19 12:30:09;;;;;;;9.10;4.87;;;;;;;4.67;92.40;100428.50;6748885;26;34959;-64
2021/12/19 12:33:14;;;;;;;9.18;5.00;;;;;;;4.70;91.99;100423.81;6749327;26;34309;-65
2021/12/19 12:36:18;;;;;;;6.25;3.90;;;;;;;4.68;92.28;100415.25;6748872;26;34615;-65
2021/12/19 12:39:27;;;;;;;8.98;5.00;;;;;;;4.75;92.03;100413.75;6749344;26;34239;-65
2021/12/19 12:42:29;;;;;;;8.10;4.53;;;;;;;4.69;92.18;100418.69;6748654;26;34971;-65
2021/12/19 12:45:57;;;;;;;7.72;4.72;;;;;;;4.74;92.45;100421.78;6749113;26;34839;-65
2021/12/19 12:49:10;;;;;;;8.60;4.37;;;;;;;4.73;92.06;100417.47;6748957;26;34930;-66
2021/12/19 12:52:12;;;;;;;9.55;4.87;;;;;;;4.72;92.34;100416.63;6748882;26;34944;-66
2021/12/19 12:55:15;;;;;;;9.43;5.53;;;;;;;4.69;92.50;100411.66;6748872;26;34980;-66
2021/12/19 12:58:18;;;;;;;8.20;4.60;;;;;;;4.65;92.52;100399.72;6748333;26;34647;-65
2021/12/19 13:01:31;;;;;;;10.50;5.03;;;;;;;4.69;92.52;100381.91;6748002;26;34936;-67
2021/12/19 13:04:34;;;;;;;8.10;4.55;;;;;;;4.68;92.39;100378.44;6728649;26;34760;-65
2021/12/19 13:07:37;;;;;;;8.38;4.97;;;;;;;4.74;92.20;100374.47;6729142;26;34243;-65
2021/12/19 13:10:40;;;;;;;8.05;4.90;;;;;;;4.76;92.38;100385.66;6749135;26;35039;-64
2021/12/19 13:13:43;;;;;;;7.55;4.15;;;;;;;4.87;92.07;100385.59;6748752;26;34428;-65
2021/12/19 13:16:58;;;;;;;10.25;5.05;;;;;;;4.94;91.51;100380.66;6749163;26;34959;-65
2021/12/19 13:20:11;;;;;;;10.02;4.75;;;;;;;4.82;92.14;100386.00;6748937;26;34381;-64
2021/12/19 13:23:15;;;;;;;7.15;4.60;;;;;;;4.84;92.40;100387.66;6748772;26;34784;-65
2021/12/19 13:26:18;;;;;;;9.15;4.47;;;;;;;4.87;92.27;100382.13;6748743;26;34335;-65
2021/12/19 13:29:20;;;;;;;6.90;4.70;;;;;;;4.79;92.19;100374.91;6748776;26;34292;-66
2021/12/19 13:32:26;;;;;;;7.28;4.55;;;;;;;4.81;92.43;100378.22;6748584;26;34635;-65
2021/12/19 13:35:40;;;;;;;11.55;4.72;;;;;;;4.76;92.92;100378.63;6748380;26;34274;-65
2021/12/19 13:38:42;;;;;;;10.00;4.55;;;;;;;4.80;92.46;100377.38;6748509;26;34335;-66
2021/12/19 13:41:45;;;;;;;9.90;4.80;;;;;;;4.90;92.35;100372.19;6748724;26;34874;-64
2021/12/19 13:44:48;;;;;;;8.52;4.28;;;;;;;4.98;91.71;100379.41;6748706;26;34940;-64
2021/12/19 13:47:53;;;;;;;6.95;4.35;;;;;;;4.96;91.95;100365.56;6749253;26;35497;-65
2021/12/19 13:51:12;;;;;;;7.22;4.30;;;;;;;4.85;92.76;100347.25;6748219;26;34904;-65
2021/12/19 13:54:15;;;;;;;6.80;4.03;;;;;;;4.95;92.15;100346.31;6749053;26;34196;-65
2021/12/19 13:57:20;;;;;;;6.78;3.90;;;;;;;4.86;92.53;100343.66;6728908;26;34190;-64
2021/12/19 14:00:33;;;;;;;6.80;4.25;;;;;;;4.88;92.58;100344.38;6748236;26;34354;-64
2021/12/19 14:03:40;;;;;;;6.45;4.03;;;;;;;4.87;92.69;100327.75;6728942;26;34129;-65
2021/12/19 14:06:45;;;;;;;6.72;4.20;;;;;;;4.90;92.32;100338.00;6748550;26;34346;-65
2021/12/19 14:09:48;;;;;;;7.37;4.07;;;;;;;4.85;92.22;100321.78;6748577;26;34254;-66
2021/12/19 14:12:57;;;;;;;8.07;4.00;;;;;;;4.92;92.00;100336.09;6748544;26;34302;-65
2021/12/19 14:16:07;;;;;;;7.62;4.65;;;;;;;4.90;91.87;100322.22;6748312;26;34491;-65
2021/12/19 14:19:27;;;;;;;7.78;3.85;;;;;;;4.96;91.53;100316.44;6747906;26;34308;-66
2021/12/19 14:22:30;;;;;;;4.18;3.08;;;;;;;4.93;91.00;100314.09;6748423;26;34241;-65
2021/12/19 14:25:32;;;;;;;6.60;4.10;;;;;;;4.96;91.32;100324.34;6728660;26;34348;-65
2021/12/19 14:28:36;;;;;;;6.72;3.75;;;;;;;4.94;91.09;100304.41;6748025;26;34285;-66
2021/12/19 14:31:46;;;;;;;6.87;3.58;;;;;;;5.02;90.42;100315.91;6747946;26;34621;-66
2021/12/19 14:34:56;;;;;;;6.15;3.92;;;;;;;5.02;90.61;100307.19;6741583;26;34449;-65
2021/12/19 14:38:02;;;;;;;5.97;3.70;;;;;;;5.00;90.96;100312.59;6738611;26;34487;-65
2021/12/19 14:41:08;;;;;;;6.78;3.95;;;;;;;4.91;91.41;100304.66;6748162;26;34442;-66
2021/12/19 14:44:38;;;;;;;6.97;4.00;;;;;;;4.91;91.40;100296.78;6728468;26;35022;-65
2021/12/19 14:47:47;;;;;;;6.85;3.70;;;;;;;4.86;92.02;100291.09;6745459;26;34122;-65
2021/12/19 14:50:54;;;;;;;7.60;3.55;;;;;;;4.89;91.50;100291.66;6748181;26;34178;-65
2021/12/19 14:53:59;;;;;;;7.72;3.60;;;;;;;4.96;91.31;100299.84;6748188;26;34909;-65
2021/12/19 14:57:03;;;;;;;6.72;4.25;;;;;;;4.89;91.83;100294.28;6747944;26;34936;-66
2021/12/19 15:00:08;;;;;;;8.25;3.80;;;;;;;4.98;91.22;100293.50;6747812;26;34895;-66
2021/12/19 15:03:11;;;;;;;5.68;4.00;;;;;;;4.95;91.45;100280.59;6748023;26;34297;-65
2021/12/19 15:06:19;;;;;;;7.25;4.10;;;;;;;4.90;91.92;100289.84;6748030;26;35504;-67
2021/12/19 15:09:22;;;;;;;7.10;4.57;;;;;;;4.91;92.21;100295.00;6748105;26;34213;-64
2021/12/19 15:12:28;;;;;;;7.68;4.35;;;;;;;4.91;92.01;100284.47;6748031;26;34987;-68
2021/12/19 15:15:31;;;;;;;6.57;4.15;;;;;;;4.94;92.10;100283.38;6748334;26;34656;-64
2021/12/19 15:18:35;;;;;;;7.50;4.00;;;;;;;4.94;92.11;100286.03;6747863;26;34276;-66